Time;durP1;ratioP1;P1;durP2;ratioP2;P2;SDS_P1;SDS_P2;PMS_P1;PMS_P2;Temp;Humidity;BMP_temperature;BMP_pressure;BME280_temperature;BME280_humidity;BME280_pressure;Samples;Min_cycle;Max_cycle;Signal;HPM_P1;HPM_P2
2023/12/15 00:01:04;;;;;;;1.67;1.57;;;7.90;99.90;;;;;;5087582;28;20177;-80
2023/12/15 00:03:30;;;;;;;0.30;0.20;;;7.90;99.90;;;;;;5090269;28;20205;-83
2023/12/15 00:05:57;;;;;;;0.30;0.20;;;7.90;99.90;;;;;;5089670;28;20380;-81
2023/12/15 00:08:24;;;;;;;0.93;0.93;;;7.90;99.90;;;;;;5090358;28;20246;-83
2023/12/15 00:10:49;;;;;;;0.30;0.20;;;7.90;99.90;;;;;;5087740;28;20177;-82
2023/12/15 00:13:15;;;;;;;0.30;0.27;;;7.90;99.90;;;;;;5089516;28;20210;-87
2023/12/15 00:15:41;;;;;;;3.83;3.70;;;7.90;99.90;;;;;;5088701;28;20164;-81
2023/12/15 00:18:07;;;;;;;0.30;0.20;;;7.90;99.90;;;;;;5089265;28;20332;-82
2023/12/15 00:20:33;;;;;;;0.30;0.30;;;7.90;99.90;;;;;;5088249;28;20243;-81
2023/12/15 00:22:59;;;;;;;0.30;0.20;;;8.00;99.90;;;;;;5088911;28;20216;-86
2023/12/15 00:25:25;;;;;;;0.30;0.30;;;7.90;99.90;;;;;;5089221;28;20168;-85
2023/12/15 00:27:51;;;;;;;0.30;0.20;;;7.90;99.90;;;;;;5090107;28;20200;-86
2023/12/15 00:30:17;;;;;;;0.30;0.30;;;7.90;99.90;;;;;;5089560;28;20204;-86
2023/12/15 00:32:44;;;;;;;0.30;0.20;;;7.90;99.90;;;;;;5088129;28;20188;-82
2023/12/15 00:35:09;;;;;;;0.30;0.20;;;8.00;99.90;;;;;;5087440;28;20176;-82
2023/12/15 00:37:35;;;;;;;0.30;0.20;;;8.00;99.90;;;;;;5088386;28;20600;-83
2023/12/15 00:40:01;;;;;;;0.30;0.20;;;8.00;99.90;;;;;;5088318;28;20202;-86
2023/12/15 00:42:27;;;;;;;1.95;1.85;;;8.00;99.90;;;;;;5090000;28;20387;-82
2023/12/15 00:44:54;;;;;;;0.30;0.20;;;8.00;99.90;;;;;;5089552;28;20192;-86
2023/12/15 00:47:20;;;;;;;0.30;0.20;;;8.00;99.90;;;;;;5088486;28;20941;-82
2023/12/15 00:49:45;;;;;;;0.30;0.30;;;8.10;99.90;;;;;;5089393;28;20224;-86
2023/12/15 00:52:11;;;;;;;30.63;27.80;;;8.00;99.90;;;;;;5089168;28;20168;-87
2023/12/15 00:54:37;;;;;;;0.30;0.20;;;8.00;99.90;;;;;;5087824;28;20583;-86
2023/12/15 00:57:03;;;;;;;0.30;0.27;;;8.00;99.90;;;;;;5089358;28;20310;-82
2023/12/15 00:59:28;;;;;;;9.20;8.60;;;8.10;99.90;;;;;;5089615;28;20196;-86
2023/12/15 01:01:54;;;;;;;0.30;0.20;;;8.10;99.90;;;;;;5087326;28;20389;-87
2023/12/15 01:04:19;;;;;;;0.30;0.20;;;8.10;99.90;;;;;;5088584;28;20724;-83
2023/12/15 01:06:45;;;;;;;0.30;0.20;;;8.10;99.90;;;;;;5088985;28;20540;-85
2023/12/15 01:09:11;;;;;;;0.30;0.20;;;8.00;99.90;;;;;;5090325;28;20299;-82
2023/12/15 01:11:37;;;;;;;0.30;0.20;;;8.00;99.90;;;;;;5093592;28;20176;-85
2023/12/15 01:14:02;;;;;;;0.30;0.20;;;8.00;99.90;;;;;;5093759;28;20472;-86
2023/12/15 01:16:28;;;;;;;0.30;0.20;;;8.00;99.90;;;;;;5093336;28;20229;-82
2023/12/15 01:18:54;;;;;;;0.30;0.20;;;7.90;99.90;;;;;;5091886;28;20246;-82
2023/12/15 01:21:19;;;;;;;0.30;0.20;;;7.90;99.90;;;;;;5092776;28;20172;-85
2023/12/15 01:23:45;;;;;;;0.30;0.20;;;7.80;99.90;;;;;;5093385;28;20665;-83
2023/12/15 01:26:11;;;;;;;0.30;0.20;;;7.80;99.90;;;;;;5093183;28;20172;-81
2023/12/15 01:28:36;;;;;;;0.30;0.20;;;7.70;99.90;;;;;;5091815;28;20227;-83
2023/12/15 01:31:02;;;;;;;0.30;0.20;;;7.70;99.90;;;;;;5091207;28;20431;-83
2023/12/15 01:33:29;;;;;;;0.30;0.20;;;7.60;99.90;;;;;;5091416;28;20228;-86
2023/12/15 01:35:55;;;;;;;0.30;0.20;;;7.60;99.90;;;;;;5092209;28;20208;-85
2023/12/15 01:38:21;;;;;;;0.30;0.20;;;7.50;99.90;;;;;;5093325;28;20192;-86
2023/12/15 01:40:47;;;;;;;0.30;0.20;;;7.50;99.90;;;;;;5092667;28;20165;-86
2023/12/15 01:43:13;;;;;;;0.30;0.20;;;7.40;99.90;;;;;;5093328;28;20556;-86
2023/12/15 01:45:39;;;;;;;0.30;0.20;;;7.40;99.90;;;;;;5092733;28;20175;-82
2023/12/15 01:48:06;;;;;;;0.30;0.20;;;7.40;99.90;;;;;;5091726;28;20497;-87
2023/12/15 01:50:32;;;;;;;0.30;0.20;;;7.30;99.90;;;;;;5092634;28;20177;-82
2023/12/15 01:52:58;;;;;;;0.30;0.20;;;7.40;99.90;;;;;;5092784;28;20200;-82
2023/12/15 01:55:23;;;;;;;0.30;0.20;;;7.30;99.90;;;;;;5090891;28;20935;-85
2023/12/15 01:57:49;;;;;;;0.30;0.20;;;7.30;99.90;;;;;;5092722;28;20207;-87
2023/12/15 02:00:15;;;;;;;0.30;0.20;;;7.30;99.90;;;;;;5092287;28;20231;-82
2023/12/15 02:02:40;;;;;;;0.30;0.20;;;7.30;99.90;;;;;;5092280;28;20180;-86
2023/12/15 02:05:06;;;;;;;0.30;0.30;;;7.30;99.90;;;;;;5091189;28;20378;-81
2023/12/15 02:07:32;;;;;;;0.30;0.20;;;7.20;99.90;;;;;;5092730;28;20181;-86
2023/12/15 02:09:58;;;;;;;0.60;0.60;;;7.20;99.90;;;;;;5090798;28;21073;-86
2023/12/15 02:12:24;;;;;;;0.30;0.20;;;7.20;99.90;;;;;;5093139;28;20700;-86
2023/12/15 02:14:50;;;;;;;0.30;0.20;;;7.10;99.90;;;;;;5092412;28;20204;-81
2023/12/15 02:17:16;;;;;;;0.30;0.20;;;7.10;99.90;;;;;;5090424;28;20525;-82
2023/12/15 02:19:41;;;;;;;0.30;0.20;;;7.10;99.90;;;;;;5091093;28;20284;-83
2023/12/15 02:22:08;;;;;;;0.30;0.20;;;7.00;99.90;;;;;;5089132;28;20672;-82
2023/12/15 02:24:33;;;;;;;0.30;0.20;;;7.00;99.90;;;;;;5091989;28;20202;-82
2023/12/15 02:26:59;;;;;;;0.30;0.20;;;6.90;99.90;;;;;;5090383;28;20176;-82
2023/12/15 02:29:26;;;;;;;0.30;0.20;;;6.80;99.90;;;;;;5091963;28;20579;-86
2023/12/15 02:31:52;;;;;;;0.30;0.20;;;6.80;99.90;;;;;;5091490;28;20705;-82
2023/12/15 02:34:18;;;;;;;0.30;0.20;;;6.80;99.90;;;;;;5090782;28;20199;-82
2023/12/15 02:36:44;;;;;;;0.30;0.20;;;6.70;99.90;;;;;;5091535;28;20176;-85
2023/12/15 02:39:09;;;;;;;0.30;0.20;;;6.70;99.90;;;;;;5092041;28;20197;-86
2023/12/15 02:41:35;;;;;;;0.30;0.20;;;6.60;99.90;;;;;;5091925;28;20247;-84
2023/12/15 02:44:01;;;;;;;0.30;0.20;;;6.60;99.90;;;;;;5092155;28;20392;-86
2023/12/15 02:46:27;;;;;;;0.30;0.20;;;6.50;99.90;;;;;;5090298;28;20543;-86
2023/12/15 02:48:52;;;;;;;0.30;0.20;;;6.50;99.90;;;;;;5090240;28;20869;-82
2023/12/15 02:51:31;;;;;;;0.30;0.20;;;6.40;99.90;;;;;;5090159;28;20172;-86
2023/12/15 02:54:00;;;;;;;0.30;0.20;;;6.40;99.90;;;;;;5091923;28;20192;-82
2023/12/15 02:56:25;;;;;;;0.30;0.20;;;6.40;99.90;;;;;;5091152;28;20176;-86
2023/12/15 02:58:51;;;;;;;0.30;0.20;;;6.40;99.90;;;;;;5091453;28;20359;-86
2023/12/15 03:01:17;;;;;;;0.30;0.20;;;6.30;99.90;;;;;;5091058;28;20169;-82
2023/12/15 03:03:43;;;;;;;0.30;0.20;;;6.30;99.90;;;;;;5091419;28;20606;-86
2023/12/15 03:06:08;;;;;;;0.30;0.20;;;6.30;99.90;;;;;;5091261;28;20495;-82
2023/12/15 03:08:34;;;;;;;0.30;0.20;;;6.30;99.90;;;;;;5091225;28;20447;-82
2023/12/15 03:11:00;;;;;;;0.33;0.30;;;6.30;99.90;;;;;;5089688;28;20168;-82
2023/12/15 03:13:28;;;;;;;0.30;0.20;;;6.20;99.90;;;;;;5091219;28;20200;-83
2023/12/15 03:15:55;;;;;;;0.30;0.20;;;6.30;99.90;;;;;;5090775;28;20902;-86
2023/12/15 03:18:21;;;;;;;0.30;0.20;;;6.30;99.90;;;;;;5091241;28;20268;-86
2023/12/15 03:20:47;;;;;;;0.30;0.20;;;6.30;99.90;;;;;;5090378;28;20216;-82
2023/12/15 03:23:12;;;;;;;0.30;0.20;;;6.30;99.90;;;;;;5088947;28;20254;-82
2023/12/15 03:25:38;;;;;;;0.30;0.20;;;6.30;99.90;;;;;;5090553;28;20175;-83
2023/12/15 03:28:04;;;;;;;0.30;0.30;;;6.30;99.90;;;;;;5090854;28;20249;-86
2023/12/15 03:30:30;;;;;;;0.30;0.20;;;6.20;99.90;;;;;;5090677;28;20168;-82
2023/12/15 03:32:55;;;;;;;0.30;0.20;;;6.20;99.90;;;;;;5090546;28;20539;-86
2023/12/15 03:35:21;;;;;;;34.00;30.30;;;6.20;99.90;;;;;;5089764;28;20251;-82
2023/12/15 03:37:47;;;;;;;0.30;0.20;;;6.10;99.90;;;;;;5089252;28;20657;-86
2023/12/15 03:40:13;;;;;;;0.30;0.20;;;6.10;99.90;;;;;;5090332;28;20632;-81
2023/12/15 03:42:39;;;;;;;0.30;0.20;;;6.10;99.90;;;;;;5090984;28;20193;-82
2023/12/15 03:45:05;;;;;;;0.30;0.20;;;6.10;99.90;;;;;;5088205;28;20230;-81
2023/12/15 03:47:31;;;;;;;0.30;0.30;;;6.10;99.90;;;;;;5090588;28;20772;-86
2023/12/15 03:49:56;;;;;;;0.30;0.20;;;6.10;99.90;;;;;;5089146;28;20262;-85
2023/12/15 03:52:22;;;;;;;0.30;0.20;;;6.10;99.90;;;;;;5090498;28;20180;-86
2023/12/15 03:54:48;;;;;;;0.30;0.20;;;6.00;99.90;;;;;;5089969;28;20721;-86
2023/12/15 03:57:14;;;;;;;0.30;0.20;;;6.00;99.90;;;;;;5090368;28;20211;-86
2023/12/15 03:59:39;;;;;;;0.30;0.20;;;6.00;99.90;;;;;;5088740;28;20193;-87
2023/12/15 04:02:06;;;;;;;0.30;0.20;;;6.00;99.90;;;;;;5090315;28;20703;-85
2023/12/15 04:04:34;;;;;;;0.30;0.20;;;6.00;99.90;;;;;;5088933;28;20211;-82
2023/12/15 04:07:00;;;;;;;0.30;0.20;;;6.00;99.90;;;;;;5088551;28;20182;-82
2023/12/15 04:09:26;;;;;;;0.30;0.20;;;5.90;99.90;;;;;;5088751;28;20291;-83
2023/12/15 04:11:52;;;;;;;0.30;0.20;;;5.90;99.90;;;;;;5089784;28;20169;-82
2023/12/15 04:14:18;;;;;;;5.50;4.57;;;5.90;99.90;;;;;;5088760;28;20429;-86
2023/12/15 04:16:43;;;;;;;0.30;0.20;;;5.90;99.90;;;;;;5089993;28;20405;-85
2023/12/15 04:19:09;;;;;;;0.30;0.20;;;5.90;99.90;;;;;;5090129;28;20682;-86
2023/12/15 04:21:34;;;;;;;0.30;0.30;;;5.80;99.90;;;;;;5088657;28;20271;-82
2023/12/15 04:24:00;;;;;;;0.30;0.20;;;5.80;99.90;;;;;;5089524;28;20750;-82
2023/12/15 04:26:26;;;;;;;0.30;0.23;;;5.80;99.90;;;;;;5089502;28;20170;-82
2023/12/15 04:28:53;;;;;;;0.30;0.20;;;5.70;99.90;;;;;;5088168;28;20234;-81
2023/12/15 04:31:18;;;;;;;0.30;0.20;;;5.70;99.90;;;;;;5089607;28;20279;-81
2023/12/15 04:33:44;;;;;;;0.30;0.20;;;5.70;99.90;;;;;;5088481;28;20287;-86
2023/12/15 04:36:13;;;;;;;0.30;0.20;;;5.70;99.90;;;;;;5089243;28;20169;-84
2023/12/15 04:38:39;;;;;;;0.30;0.20;;;5.60;99.90;;;;;;5090068;28;20687;-86
2023/12/15 04:41:04;;;;;;;0.30;0.20;;;5.60;99.90;;;;;;5089461;28;20181;-82
2023/12/15 04:43:30;;;;;;;0.30;0.20;;;5.60;99.90;;;;;;5089472;28;20235;-85
2023/12/15 04:45:56;;;;;;;0.30;0.20;;;5.50;99.90;;;;;;5089146;28;20408;-82
2023/12/15 04:48:22;;;;;;;0.30;0.20;;;5.50;99.90;;;;;;5088664;28;20215;-82
2023/12/15 04:50:49;;;;;;;0.30;0.20;;;5.50;99.90;;;;;;5087921;28;20645;-82
2023/12/15 04:53:15;;;;;;;0.30;0.20;;;5.50;99.90;;;;;;5089148;28;20207;-86
2023/12/15 04:55:40;;;;;;;0.30;0.20;;;5.50;99.90;;;;;;5088892;28;20168;-84
2023/12/15 04:58:07;;;;;;;0.30;0.20;;;5.40;99.90;;;;;;5089395;28;20200;-82
2023/12/15 05:00:32;;;;;;;0.30;0.20;;;5.40;99.90;;;;;;5087763;28;20255;-85
2023/12/15 05:02:59;;;;;;;0.30;0.20;;;5.40;99.90;;;;;;5089667;28;20353;-82
2023/12/15 05:05:25;;;;;;;0.30;0.20;;;5.30;99.90;;;;;;5087901;28;20172;-85
2023/12/15 05:07:50;;;;;;;0.37;0.23;;;5.30;99.90;;;;;;5089256;28;20208;-85
2023/12/15 05:10:16;;;;;;;0.30;0.20;;;5.30;99.90;;;;;;5088889;28;20286;-86
2023/12/15 05:12:42;;;;;;;0.30;0.30;;;5.30;99.90;;;;;;5086046;28;20187;-86
2023/12/15 05:15:08;;;;;;;0.30;0.20;;;5.30;99.90;;;;;;5099404;28;20198;-82
2023/12/15 05:17:33;;;;;;;0.30;0.20;;;5.30;99.90;;;;;;5095567;28;20222;-86
2023/12/15 05:20:02;;;;;;;0.30;0.23;;;5.30;99.90;;;;;;5094828;28;20168;-83
2023/12/15 05:22:28;;;;;;;0.30;0.20;;;5.20;99.90;;;;;;5088139;28;20536;-82
2023/12/15 05:24:53;;;;;;;0.30;0.30;;;5.10;99.90;;;;;;5063588;28;20222;-85
2023/12/15 05:27:19;;;;;;;0.30;0.20;;;5.10;99.90;;;;;;5087320;28;20184;-86
2023/12/15 05:29:45;;;;;;;0.30;0.30;;;5.10;99.90;;;;;;5091107;28;20878;-86
2023/12/15 05:32:14;;;;;;;0.30;0.20;;;5.00;99.90;;;;;;5066127;28;22215;-85
2023/12/15 05:34:41;;;;;;;0.30;0.20;;;5.00;99.90;;;;;;5066936;28;21470;-86
2023/12/15 05:37:06;;;;;;;0.30;0.20;;;4.90;99.90;;;;;;5065493;28;20208;-82
2023/12/15 05:39:32;;;;;;;0.30;0.30;;;4.80;99.90;;;;;;5063812;28;20204;-82
2023/12/15 05:41:58;;;;;;;0.30;0.20;;;4.80;99.90;;;;;;5061198;28;20291;-86
2023/12/15 05:44:23;;;;;;;0.30;0.23;;;4.70;99.90;;;;;;5064519;28;20923;-82
2023/12/15 05:46:49;;;;;;;0.30;0.20;;;4.70;99.90;;;;;;5063826;28;20164;-81
2023/12/15 05:49:15;;;;;;;0.30;0.20;;;4.70;99.90;;;;;;5065726;28;20219;-82
2023/12/15 05:51:47;;;;;;;0.30;0.20;;;4.70;99.90;;;;;;5063771;28;20171;-85
2023/12/15 05:54:12;;;;;;;0.30;0.20;;;4.70;99.90;;;;;;5063345;28;20573;-81
2023/12/15 05:56:39;;;;;;;0.30;0.20;;;4.70;99.90;;;;;;5066591;28;20177;-85
2023/12/15 05:59:04;;;;;;;0.30;0.20;;;4.70;99.90;;;;;;5082891;28;20223;-82
2023/12/15 06:01:30;;;;;;;0.30;0.20;;;4.70;99.90;;;;;;5091681;28;20238;-82
2023/12/15 06:03:56;;;;;;;0.30;0.20;;;4.70;99.90;;;;;;5093005;28;20204;-82
2023/12/15 06:06:21;;;;;;;0.30;0.20;;;4.80;99.90;;;;;;5084631;28;20233;-86
2023/12/15 06:08:47;;;;;;;0.30;0.20;;;4.80;99.90;;;;;;5094928;28;20236;-82
2023/12/15 06:11:13;;;;;;;0.30;0.20;;;4.80;99.90;;;;;;5093420;28;20164;-82
2023/12/15 06:13:41;;;;;;;0.30;0.30;;;4.80;99.90;;;;;;5082597;28;20241;-82
2023/12/15 06:16:07;;;;;;;0.30;0.20;;;4.80;99.90;;;;;;5077347;28;20440;-82
2023/12/15 06:18:33;;;;;;;0.30;0.30;;;4.90;99.90;;;;;;5072010;28;20235;-82
2023/12/15 06:20:59;;;;;;;0.30;0.20;;;4.90;99.90;;;;;;5096733;28;20403;-85
2023/12/15 06:23:25;;;;;;;0.30;0.30;;;4.90;99.90;;;;;;5089913;28;20447;-86
2023/12/15 06:25:51;;;;;;;1.00;0.97;;;4.90;99.90;;;;;;5096536;28;20266;-86
2023/12/15 06:28:16;;;;;;;0.30;0.23;;;4.90;99.90;;;;;;5096667;28;20216;-86
2023/12/15 06:30:42;;;;;;;0.30;0.20;;;4.80;99.90;;;;;;5095996;27;20680;-85
2023/12/15 06:33:08;;;;;;;0.30;0.20;;;4.80;99.90;;;;;;5094730;28;20234;-86
2023/12/15 06:35:33;;;;;;;0.30;0.20;;;4.70;99.90;;;;;;5092614;28;20176;-81
2023/12/15 06:38:00;;;;;;;0.30;0.30;;;4.70;99.90;;;;;;5088299;28;20239;-82
2023/12/15 06:40:25;;;;;;;0.30;0.20;;;4.70;99.90;;;;;;5091859;28;20534;-86
2023/12/15 06:42:51;;;;;;;0.30;0.20;;;4.70;99.90;;;;;;5092533;28;20283;-81
2023/12/15 06:45:17;;;;;;;0.30;0.30;;;4.70;99.90;;;;;;5094696;28;20210;-86
2023/12/15 06:47:43;;;;;;;0.30;0.20;;;4.70;99.90;;;;;;5084156;28;20843;-86
2023/12/15 06:50:09;;;;;;;0.30;0.20;;;4.70;99.90;;;;;;5087659;28;20696;-82
2023/12/15 06:52:35;;;;;;;0.30;0.30;;;4.70;99.90;;;;;;5086771;28;20181;-82
2023/12/15 06:55:02;;;;;;;0.30;0.20;;;4.70;99.90;;;;;;5085765;28;20681;-81
2023/12/15 06:57:28;;;;;;;0.30;0.20;;;4.70;99.90;;;;;;5086101;28;20594;-86
2023/12/15 06:59:54;;;;;;;0.30;0.30;;;4.80;99.90;;;;;;5084542;28;20725;-81
2023/12/15 07:02:20;;;;;;;0.30;0.20;;;4.80;99.90;;;;;;5088377;28;20189;-86
2023/12/15 07:04:46;;;;;;;0.30;0.20;;;4.80;99.90;;;;;;5080787;28;20430;-81
2023/12/15 07:07:11;;;;;;;0.30;0.20;;;4.80;99.90;;;;;;5072902;28;20537;-81
2023/12/15 07:09:37;;;;;;;0.30;0.20;;;4.80;99.90;;;;;;5080324;28;20291;-81
2023/12/15 07:12:03;;;;;;;0.30;0.20;;;4.80;99.90;;;;;;5081486;28;20397;-81
2023/12/15 07:14:30;;;;;;;0.30;0.20;;;4.80;99.90;;;;;;5086367;28;20195;-82
2023/12/15 07:16:55;;;;;;;0.30;0.30;;;4.90;99.90;;;;;;5091419;27;20736;-82
2023/12/15 07:19:21;;;;;;;0.30;0.20;;;4.80;99.90;;;;;;5087497;28;20223;-86
2023/12/15 07:21:47;;;;;;;0.30;0.20;;;4.90;99.90;;;;;;5084991;28;20211;-81
2023/12/15 07:24:12;;;;;;;0.37;0.30;;;4.90;99.90;;;;;;5088775;28;20208;-86
2023/12/15 07:26:39;;;;;;;0.30;0.20;;;4.90;99.90;;;;;;5089288;28;20498;-85
2023/12/15 07:29:05;;;;;;;0.30;0.20;;;4.90;99.90;;;;;;5088119;28;20842;-86
2023/12/15 07:31:31;;;;;;;0.30;0.20;;;5.00;99.90;;;;;;5086578;28;20188;-82
2023/12/15 07:33:56;;;;;;;0.30;0.30;;;5.00;99.90;;;;;;5086428;28;20204;-85
2023/12/15 07:36:22;;;;;;;0.30;0.20;;;5.10;99.90;;;;;;5089473;28;20172;-84
2023/12/15 07:38:48;;;;;;;0.30;0.20;;;5.10;99.90;;;;;;5089307;28;20196;-86
2023/12/15 07:41:14;;;;;;;0.30;0.30;;;5.10;99.90;;;;;;5087378;28;20372;-82
2023/12/15 07:43:40;;;;;;;0.30;0.20;;;5.10;99.90;;;;;;5092472;28;20603;-82
2023/12/15 07:46:15;;;;;;;0.30;0.20;;;5.10;99.90;;;;;;5089074;28;20184;-86
2023/12/15 07:48:40;;;;;;;0.30;0.20;;;5.10;99.90;;;;;;5086144;28;20299;-86
2023/12/15 07:51:14;;;;;;;0.30;0.20;;;5.20;99.90;;;;;;5093915;28;20703;-82
2023/12/15 07:53:40;;;;;;;0.30;0.30;;;5.20;99.90;;;;;;5074901;28;20745;-84
2023/12/15 07:56:06;;;;;;;0.30;0.20;;;5.20;99.90;;;;;;5091516;28;20259;-86
2023/12/15 07:58:31;;;;;;;0.30;0.20;;;5.20;99.90;;;;;;5088886;28;20944;-81
2023/12/15 08:00:57;;;;;;;0.30;0.20;;;5.20;99.90;;;;;;5094953;28;20412;-85
2023/12/15 08:03:23;;;;;;;0.30;0.20;;;5.20;99.90;;;;;;5090990;28;20294;-86
2023/12/15 08:05:49;;;;;;;0.30;0.20;;;5.30;99.90;;;;;;5097473;28;20245;-82
2023/12/15 08:08:14;;;;;;;0.30;0.30;;;5.30;99.90;;;;;;5090870;28;20203;-86
2023/12/15 08:10:40;;;;;;;0.30;0.20;;;5.30;99.90;;;;;;5091642;28;20485;-82
2023/12/15 08:13:09;;;;;;;0.30;0.20;;;5.30;99.90;;;;;;5089348;28;20241;-85
2023/12/15 08:15:35;;;;;;;0.30;0.20;;;5.40;99.90;;;;;;5085226;28;20382;-82
2023/12/15 08:18:01;;;;;;;0.30;0.20;;;5.40;99.90;;;;;;5076127;28;20606;-82
2023/12/15 08:20:26;;;;;;;0.30;0.20;;;5.50;99.90;;;;;;5080694;28;20241;-84
2023/12/15 08:22:52;;;;;;;0.30;0.30;;;5.50;99.90;;;;;;5101985;27;20200;-86
2023/12/15 08:25:17;;;;;;;0.30;0.20;;;5.60;99.90;;;;;;5088645;28;20472;-84
2023/12/15 08:27:43;;;;;;;0.47;0.47;;;5.70;99.90;;;;;;5089356;28;20579;-82
2023/12/15 08:30:09;;;;;;;0.30;0.20;;;5.70;99.90;;;;;;5088448;28;21092;-86
2023/12/15 08:32:35;;;;;;;0.30;0.30;;;5.80;99.90;;;;;;5108595;27;20271;-86
2023/12/15 08:35:01;;;;;;;0.30;0.20;;;5.80;99.90;;;;;;5082698;28;20516;-86
2023/12/15 08:37:28;;;;;;;0.30;0.30;;;5.90;99.90;;;;;;5086852;28;20727;-87
2023/12/15 08:39:53;;;;;;;0.30;0.20;;;5.90;99.90;;;;;;5087910;28;20428;-86
2023/12/15 08:42:19;;;;;;;0.30;0.20;;;6.00;99.90;;;;;;5087862;28;20234;-82
2023/12/15 08:44:44;;;;;;;0.30;0.20;;;6.10;99.90;;;;;;5090341;28;20607;-82
2023/12/15 08:47:10;;;;;;;0.30;0.20;;;6.10;99.90;;;;;;5080339;28;20186;-83
2023/12/15 08:49:36;;;;;;;0.30;0.20;;;6.30;99.90;;;;;;5088837;28;20208;-86
2023/12/15 08:52:02;;;;;;;0.30;0.20;;;6.40;99.90;;;;;;5081910;28;20694;-82
2023/12/15 08:54:28;;;;;;;0.30;0.20;;;6.40;99.90;;;;;;5060780;28;20412;-82
2023/12/15 08:56:53;;;;;;;0.30;0.20;;;6.50;99.90;;;;;;5073702;28;20760;-82
2023/12/15 08:59:19;;;;;;;0.30;0.20;;;6.60;99.90;;;;;;5075942;28;20486;-86
2023/12/15 09:01:45;;;;;;;0.30;0.20;;;6.70;99.90;;;;;;5080476;28;20177;-86
2023/12/15 09:04:10;;;;;;;0.30;0.30;;;6.80;99.90;;;;;;5092676;28;20749;-86
2023/12/15 09:06:36;;;;;;;0.50;0.50;;;7.00;99.90;;;;;;5089678;28;21189;-85
2023/12/15 09:09:02;;;;;;;0.30;0.20;;;7.30;99.90;;;;;;5086803;28;20231;-83
2023/12/15 09:11:28;;;;;;;0.95;0.95;;;7.80;99.90;;;;;;5086670;28;20180;-86
2023/12/15 09:13:53;;;;;;;0.47;0.43;;;8.10;99.90;;;;;;5090198;28;20335;-82
2023/12/15 09:16:19;;;;;;;0.30;0.20;;;8.20;99.90;;;;;;5089857;28;20208;-82
2023/12/15 09:18:45;;;;;;;0.40;0.30;;;8.30;99.90;;;;;;5086477;28;20270;-82
2023/12/15 09:21:11;;;;;;;2.60;2.40;;;8.50;99.90;;;;;;5063913;28;20401;-86
2023/12/15 09:23:37;;;;;;;0.30;0.20;;;8.70;99.90;;;;;;5062407;28;21069;-85
2023/12/15 09:26:03;;;;;;;0.35;0.20;;;8.70;99.90;;;;;;5061422;28;20880;-85
2023/12/15 09:28:29;;;;;;;0.30;0.20;;;8.80;99.90;;;;;;5064745;28;20222;-82
2023/12/15 09:30:55;;;;;;;0.30;0.20;;;8.90;99.90;;;;;;5066677;28;20223;-82
2023/12/15 09:33:20;;;;;;;1.90;1.80;;;8.90;99.90;;;;;;5067676;28;20468;-82
2023/12/15 09:35:46;;;;;;;0.30;0.20;;;8.90;99.90;;;;;;5067486;28;21410;-87
2023/12/15 09:38:12;;;;;;;0.30;0.30;;;8.90;99.90;;;;;;5063368;28;20211;-82
2023/12/15 09:40:38;;;;;;;0.30;0.20;;;8.90;99.90;;;;;;5063853;28;20490;-87
2023/12/15 09:43:04;;;;;;;4.15;3.95;;;8.90;99.90;;;;;;5065689;28;20460;-86
2023/12/15 09:45:30;;;;;;;10.73;10.27;;;8.90;99.90;;;;;;5065428;28;20184;-86
2023/12/15 09:47:58;;;;;;;0.97;0.97;;;8.90;99.90;;;;;;5064388;28;20218;-82
2023/12/15 09:50:27;;;;;;;0.30;0.20;;;8.90;99.90;;;;;;5072167;28;20560;-86
2023/12/15 09:52:55;;;;;;;1.10;1.05;;;8.90;99.90;;;;;;5063510;28;20487;-86
2023/12/15 09:55:21;;;;;;;3.20;2.63;;;8.90;99.90;;;;;;5062815;28;20192;-86
2023/12/15 09:57:47;;;;;;;0.40;0.40;;;8.90;99.90;;;;;;5079938;28;20470;-87
2023/12/15 10:00:13;;;;;;;2.85;2.75;;;9.00;99.90;;;;;;5089156;28;20175;-86
2023/12/15 10:02:39;;;;;;;2.35;2.25;;;9.00;99.90;;;;;;5086573;28;20445;-86
2023/12/15 10:05:06;;;;;;;0.30;0.20;;;9.00;99.90;;;;;;5084218;28;20211;-83
2023/12/15 10:07:32;;;;;;;1.58;1.50;;;9.10;99.90;;;;;;5082301;28;20586;-75
2023/12/15 10:09:58;;;;;;;0.30;0.20;;;9.10;99.90;;;;;;5067608;28;20412;-76
2023/12/15 10:12:25;;;;;;;2.67;2.57;;;9.10;99.90;;;;;;5080865;28;20180;-81
2023/12/15 10:14:51;;;;;;;0.30;0.20;;;9.10;99.90;;;;;;5084531;28;20784;-81
2023/12/15 10:17:17;;;;;;;0.30;0.20;;;9.20;99.90;;;;;;5086963;28;20335;-75
2023/12/15 10:19:43;;;;;;;0.67;0.63;;;9.20;99.90;;;;;;5091800;28;20798;-76
2023/12/15 10:22:08;;;;;;;0.30;0.20;;;9.20;99.90;;;;;;5086159;28;20429;-76
2023/12/15 10:24:34;;;;;;;0.30;0.20;;;9.20;99.90;;;;;;5084884;28;20200;-81
2023/12/15 10:27:02;;;;;;;1.15;1.15;;;9.20;99.90;;;;;;5081457;28;20191;-81
2023/12/15 10:29:28;;;;;;;0.93;0.93;;;9.10;99.90;;;;;;5082651;28;20588;-75
2023/12/15 10:31:54;;;;;;;0.30;0.20;;;9.10;99.90;;;;;;5081513;28;20188;-75
2023/12/15 10:34:27;;;;;;;14.02;5.93;;;9.10;99.90;;;;;;5069709;28;20475;-81
2023/12/15 10:36:53;;;;;;;0.30;0.20;;;9.10;99.90;;;;;;5078408;28;20179;-75
2023/12/15 10:39:20;;;;;;;0.30;0.20;;;9.20;99.90;;;;;;5072757;28;20581;-75
2023/12/15 10:41:47;;;;;;;0.30;0.20;;;9.20;99.90;;;;;;5074547;28;20976;-75
2023/12/15 10:44:14;;;;;;;0.30;0.30;;;9.20;99.90;;;;;;5082943;28;20200;-81
2023/12/15 10:46:43;;;;;;;0.30;0.20;;;9.20;99.90;;;;;;5083404;28;20785;-76
2023/12/15 10:49:10;;;;;;;11.50;10.45;;;9.20;99.90;;;;;;5090220;28;20348;-76
2023/12/15 10:51:41;;;;;;;0.75;0.75;;;9.20;99.90;;;;;;5087751;28;20203;-75
2023/12/15 10:54:08;;;;;;;1.45;1.38;;;9.20;99.90;;;;;;5086537;27;20236;-75
2023/12/15 10:56:39;;;;;;;0.40;0.30;;;9.20;99.90;;;;;;5082758;28;20175;-75
2023/12/15 10:59:09;;;;;;;0.40;0.40;;;9.20;99.90;;;;;;5094474;28;20212;-81
2023/12/15 11:01:37;;;;;;;0.30;0.20;;;9.20;99.90;;;;;;5087768;28;20358;-76
2023/12/15 11:04:16;;;;;;;0.30;0.20;;;9.20;99.90;;;;;;5089686;28;20218;-81
2023/12/15 11:06:42;;;;;;;0.30;0.20;;;9.20;99.90;;;;;;5087025;28;20543;-76
2023/12/15 11:09:08;;;;;;;0.60;0.60;;;9.20;99.90;;;;;;5089889;28;20230;-75
2023/12/15 11:11:33;;;;;;;0.30;0.20;;;9.20;99.90;;;;;;5085286;28;20432;-75
2023/12/15 11:14:01;;;;;;;0.30;0.20;;;9.20;99.90;;;;;;5086159;28;20803;-81
2023/12/15 11:16:29;;;;;;;1.85;1.75;;;9.20;99.90;;;;;;5082590;28;20271;-75
2023/12/15 11:18:56;;;;;;;0.30;0.30;;;9.20;99.90;;;;;;5097762;28;20232;-81
2023/12/15 11:21:22;;;;;;;0.30;0.20;;;9.30;99.90;;;;;;5085104;28;20208;-81
2023/12/15 11:24:03;;;;;;;2.10;2.00;;;9.20;99.90;;;;;;5079073;28;20441;-75
2023/12/15 11:26:29;;;;;;;0.30;0.20;;;9.20;99.90;;;;;;5076908;28;20169;-81
2023/12/15 11:29:09;;;;;;;0.30;0.20;;;9.20;99.90;;;;;;5093475;28;20534;-79
2023/12/15 11:31:35;;;;;;;0.30;0.20;;;9.20;99.90;;;;;;5091636;28;20168;-75
2023/12/15 11:34:03;;;;;;;0.30;0.30;;;9.20;99.90;;;;;;5081253;28;20211;-76
2023/12/15 11:36:37;;;;;;;0.30;0.20;;;9.20;99.90;;;;;;5087913;28;20180;-75
2023/12/15 11:39:04;;;;;;;0.30;0.30;;;9.20;99.90;;;;;;5092420;28;20565;-81
2023/12/15 11:41:31;;;;;;;0.30;0.20;;;9.20;99.90;;;;;;5083262;28;20534;-75
2023/12/15 11:43:58;;;;;;;0.30;0.30;;;9.20;99.90;;;;;;5087454;28;20196;-81
2023/12/15 11:46:26;;;;;;;3.08;2.17;;;9.20;99.90;;;;;;5079093;28;20663;-75
2023/12/15 11:48:52;;;;;;;16.40;15.50;;;9.30;99.90;;;;;;5063641;28;20226;-81
2023/12/15 11:51:18;;;;;;;28.83;27.30;;;9.30;99.90;;;;;;5076377;28;20259;-78
2023/12/15 11:53:47;;;;;;;0.30;0.20;;;9.30;99.90;;;;;;5053020;28;20223;-80
2023/12/15 11:56:14;;;;;;;22.42;20.88;;;9.30;99.90;;;;;;5066272;28;20180;-75
2023/12/15 11:58:40;;;;;;;0.30;0.28;;;9.30;99.90;;;;;;5082073;28;20203;-75
2023/12/15 12:01:08;;;;;;;0.40;0.40;;;9.30;99.90;;;;;;5080832;28;20177;-80
2023/12/15 12:03:34;;;;;;;0.30;0.20;;;9.30;99.90;;;;;;5080006;28;20195;-74
2023/12/15 12:06:04;;;;;;;0.53;0.50;;;9.30;99.90;;;;;;5075766;28;20211;-80
2023/12/15 12:08:32;;;;;;;6.65;6.35;;;9.30;99.90;;;;;;5078754;28;21120;-75
2023/12/15 12:10:58;;;;;;;0.38;0.22;;;9.30;99.90;;;;;;5078070;28;20345;-81
2023/12/15 12:13:31;;;;;;;0.40;0.30;;;9.30;99.90;;;;;;5082870;28;20196;-80
2023/12/15 12:15:57;;;;;;;0.30;0.20;;;9.30;99.90;;;;;;5079985;28;20171;-80
2023/12/15 12:18:25;;;;;;;1.07;1.07;;;9.30;99.90;;;;;;5083764;28;20278;-81
2023/12/15 12:20:56;;;;;;;0.30;0.20;;;9.30;99.90;;;;;;5081117;28;20512;-80
2023/12/15 12:23:28;;;;;;;0.30;0.20;;;9.20;99.90;;;;;;5084748;28;20227;-80
2023/12/15 12:25:58;;;;;;;1.40;1.35;;;9.20;99.90;;;;;;5093281;28;20184;-80
2023/12/15 12:28:39;;;;;;;0.30;0.20;;;9.20;99.90;;;;;;5077331;28;20253;-75
2023/12/15 12:31:04;;;;;;;0.30;0.20;;;9.20;99.90;;;;;;5084512;28;20484;-80
2023/12/15 12:33:30;;;;;;;1.70;1.60;;;9.10;99.90;;;;;;5085241;28;20451;-80
2023/12/15 12:35:56;;;;;;;0.30;0.20;;;9.10;99.90;;;;;;5080583;28;20776;-75
2023/12/15 12:38:22;;;;;;;2.05;2.05;;;9.00;99.90;;;;;;5049361;28;20534;-75
2023/12/15 12:40:48;;;;;;;0.30;0.20;;;9.00;99.90;;;;;;5050781;28;20188;-74
2023/12/15 12:43:13;;;;;;;0.40;0.40;;;9.00;99.90;;;;;;5049342;28;20719;-74
2023/12/15 12:45:39;;;;;;;0.30;0.20;;;9.00;99.90;;;;;;5052885;28;20176;-75
2023/12/15 12:48:05;;;;;;;0.30;0.20;;;9.00;99.90;;;;;;5065972;28;20209;-80
2023/12/15 12:50:31;;;;;;;0.30;0.20;;;9.00;99.90;;;;;;5071233;28;20372;-81
2023/12/15 12:52:56;;;;;;;0.30;0.20;;;9.00;99.90;;;;;;5073572;28;20208;-75